createdAt,value
2022-10-18T00:01:13.143Z,13.05
2022-10-18T00:03:43.966Z,12.05
2022-10-18T00:06:12.433Z,11.80
2022-10-18T00:08:40.509Z,11.80
2022-10-18T00:11:08.752Z,11.27
2022-10-18T00:13:37.483Z,11.32
2022-10-18T00:16:10.554Z,12.88
2022-10-18T00:18:38.723Z,13.82
2022-10-18T00:21:11.135Z,12.47
2022-10-18T00:23:39.301Z,13.88
2022-10-18T00:26:12.818Z,13.30
2022-10-18T00:28:42.096Z,11.93
2022-10-18T00:31:25.121Z,12.55
2022-10-18T00:33:58.468Z,12.43
2022-10-18T00:36:28.231Z,11.65
2022-10-18T00:38:57.076Z,11.90
2022-10-18T00:41:28.252Z,11.95
2022-10-18T00:44:06.650Z,11.73
2022-10-18T00:46:43.048Z,12.33
2022-10-18T00:49:16.086Z,10.52
2022-10-18T00:51:52.132Z,10.20
2022-10-18T00:54:21.321Z,10.52
2022-10-18T00:56:49.435Z,11.05
2022-10-18T00:59:19.441Z,9.80
2022-10-18T01:01:47.830Z,9.15
2022-10-18T01:04:18.502Z,10.02
2022-10-18T01:07:11.396Z,10.77
2022-10-18T01:09:56.594Z,11.65
2022-10-18T01:12:49.051Z,11.07
2022-10-18T01:15:30.863Z,11.40
2022-10-18T01:18:25.598Z,12.02
2022-10-18T01:21:13.705Z,11.82
2022-10-18T01:23:41.416Z,11.45
2022-10-18T01:26:50.565Z,12.27
2022-10-18T01:29:37.405Z,13.48
2022-10-18T01:32:10.427Z,16.63
2022-10-18T01:34:40.564Z,15.10
2022-10-18T01:37:12.255Z,15.98
2022-10-18T01:39:45.618Z,15.97
2022-10-18T01:42:18.118Z,14.55
2022-10-18T01:44:47.556Z,14.85
2022-10-18T01:47:16.165Z,14.73
2022-10-18T01:49:44.441Z,15.55
2022-10-18T01:52:16.979Z,15.43
2022-10-18T01:54:50.771Z,13.88
2022-10-18T01:57:40.370Z,14.88
2022-10-18T02:00:19.633Z,14.27
2022-10-18T02:02:55.471Z,14.65
2022-10-18T02:05:23.454Z,15.37
2022-10-18T02:08:12.322Z,15.90
2022-10-18T02:10:53.526Z,16.92
2022-10-18T02:13:23.901Z,16.40
2022-10-18T02:15:57.018Z,17.10
2022-10-18T02:18:32.285Z,17.37
2022-10-18T02:21:02.589Z,16.52
2022-10-18T02:23:32.074Z,16.92
2022-10-18T02:25:59.876Z,18.30
2022-10-18T02:28:28.340Z,18.17
2022-10-18T02:31:05.075Z,17.33
2022-10-18T02:33:38.798Z,16.17
2022-10-18T02:36:22.715Z,17.02
2022-10-18T02:38:55.448Z,16.45
2022-10-18T02:41:27.573Z,16.45
2022-10-18T02:43:55.719Z,17.33
2022-10-18T02:46:23.768Z,15.82
2022-10-18T02:48:52.379Z,15.90
2022-10-18T02:51:20.161Z,15.45
2022-10-18T02:53:48.405Z,13.95
2022-10-18T02:56:16.901Z,13.97
2022-10-18T02:58:45.001Z,14.40
2022-10-18T03:01:12.684Z,14.50
2022-10-18T03:03:41.424Z,14.82
2022-10-18T03:06:09.112Z,14.98
2022-10-18T03:08:37.588Z,14.83
2022-10-18T03:11:05.651Z,15.82
2022-10-18T03:13:34.586Z,14.68
2022-10-18T03:16:02.479Z,15.45
2022-10-18T03:18:30.540Z,14.85
2022-10-18T03:20:58.210Z,14.83
2022-10-18T03:23:26.283Z,15.45
2022-10-18T03:25:53.869Z,18.27
2022-10-18T03:28:21.923Z,16.20
2022-10-18T03:30:49.532Z,18.08
2022-10-18T03:33:17.669Z,16.40
2022-10-18T03:35:46.415Z,18.00
2022-10-18T03:38:15.011Z,16.77
2022-10-18T03:40:42.817Z,17.02
2022-10-18T03:43:10.969Z,17.08
2022-10-18T03:45:40.272Z,15.87
2022-10-18T03:48:08.339Z,15.73
2022-10-18T03:50:36.341Z,16.10
2022-10-18T03:53:04.508Z,14.60
2022-10-18T03:55:32.315Z,16.13
2022-10-18T03:58:00.400Z,14.20
2022-10-18T04:00:28.041Z,15.95
2022-10-18T04:02:56.257Z,16.45
2022-10-18T04:05:24.810Z,15.23
2022-10-18T04:07:52.933Z,14.75
2022-10-18T04:10:21.336Z,16.50
2022-10-18T04:12:49.464Z,16.98
2022-10-18T04:15:17.143Z,16.40
2022-10-18T04:17:45.240Z,16.63
2022-10-18T04:20:13.202Z,16.15
2022-10-18T04:22:41.239Z,16.10
2022-10-18T04:25:08.978Z,15.80
2022-10-18T04:27:37.227Z,15.48
2022-10-18T04:30:05.362Z,15.75
2022-10-18T04:32:35.292Z,18.25
2022-10-18T04:35:04.420Z,16.43
2022-10-18T04:37:33.554Z,16.40
2022-10-18T04:40:01.548Z,16.48
2022-10-18T04:42:29.540Z,16.67
2022-10-18T04:44:57.407Z,15.95
2022-10-18T04:47:25.357Z,15.13
2022-10-18T04:49:53.148Z,12.73
2022-10-18T04:52:21.031Z,14.35
2022-10-18T04:54:48.815Z,13.10
2022-10-18T04:57:16.887Z,14.40
2022-10-18T04:59:45.392Z,15.50
2022-10-18T05:02:13.249Z,14.90
2022-10-18T05:04:41.492Z,16.60
2022-10-18T05:07:09.469Z,15.93
2022-10-18T05:09:37.305Z,14.52
2022-10-18T05:12:05.382Z,15.20
2022-10-18T05:14:33.231Z,19.65
2022-10-18T05:17:01.225Z,23.65
2022-10-18T05:19:29.283Z,14.68
2022-10-18T05:21:57.217Z,20.83
2022-10-18T05:24:27.645Z,13.43
2022-10-18T05:26:55.970Z,11.60
2022-10-18T05:29:24.386Z,13.32
2022-10-18T05:31:52.691Z,14.48
2022-10-18T05:34:21.170Z,14.02
2022-10-18T05:36:52.314Z,15.70
2022-10-18T05:39:20.164Z,14.30
2022-10-18T05:41:48.142Z,14.15
2022-10-18T05:44:16.439Z,13.02
2022-10-18T05:46:44.328Z,15.82
2022-10-18T05:49:13.500Z,14.13
2022-10-18T05:51:41.427Z,15.27
2022-10-18T05:54:12.249Z,15.27
2022-10-18T05:56:40.999Z,14.63
2022-10-18T05:59:12.493Z,14.88
2022-10-18T06:01:42.636Z,14.37
2022-10-18T06:04:10.767Z,14.55
2022-10-18T06:06:39.713Z,13.70
2022-10-18T06:09:08.998Z,15.43
2022-10-18T06:11:37.346Z,14.95
2022-10-18T06:14:05.520Z,17.70
2022-10-18T06:16:34.379Z,14.90
2022-10-18T06:19:02.171Z,15.68
2022-10-18T06:21:30.082Z,14.70
2022-10-18T06:23:59.383Z,15.20
2022-10-18T06:26:28.246Z,13.63
2022-10-18T06:28:55.999Z,14.23
2022-10-18T06:31:24.474Z,13.65
2022-10-18T06:33:52.063Z,15.13
2022-10-18T06:36:24.267Z,13.88
2022-10-18T06:38:52.511Z,14.70
2022-10-18T06:41:20.784Z,14.27
2022-10-18T06:43:53.693Z,12.93
2022-10-18T06:46:21.710Z,14.00
2022-10-18T06:48:49.666Z,13.38
2022-10-18T06:51:18.667Z,13.50
2022-10-18T06:53:59.717Z,12.82
2022-10-18T06:56:37.961Z,13.18
2022-10-18T06:59:05.865Z,14.30
2022-10-18T07:01:34.091Z,13.75
2022-10-18T07:04:01.841Z,13.90
2022-10-18T07:06:29.885Z,13.55
2022-10-18T07:08:57.851Z,13.93
2022-10-18T07:11:27.466Z,13.55
2022-10-18T07:14:05.048Z,15.23
2022-10-18T07:16:34.409Z,13.77
2022-10-18T07:19:02.143Z,14.13
2022-10-18T07:21:30.219Z,14.93
2022-10-18T07:23:58.143Z,15.07
2022-10-18T07:26:29.498Z,12.20
2022-10-18T07:29:08.731Z,13.30
2022-10-18T07:31:38.728Z,13.95
2022-10-18T07:34:07.523Z,15.43
2022-10-18T07:36:35.699Z,16.95
2022-10-18T07:39:03.787Z,14.70
2022-10-18T07:41:33.908Z,14.70
2022-10-18T07:44:03.055Z,14.05
2022-10-18T07:46:30.929Z,14.38
2022-10-18T07:48:59.830Z,14.80
2022-10-18T07:51:28.715Z,14.82
2022-10-18T07:53:56.455Z,15.17
2022-10-18T07:56:24.469Z,16.55
2022-10-18T07:58:54.402Z,12.95
2022-10-18T08:01:24.210Z,12.60
2022-10-18T08:03:52.919Z,14.02
2022-10-18T08:06:23.061Z,11.63
2022-10-18T08:08:51.047Z,12.75
2022-10-18T08:11:22.354Z,13.98
2022-10-18T08:13:50.783Z,13.35
2022-10-18T08:16:21.594Z,13.68
2022-10-18T08:18:49.540Z,13.10
2022-10-18T08:21:19.330Z,12.82
2022-10-18T08:24:30.432Z,17.15
2022-10-18T08:27:53.124Z,14.40
2022-10-18T08:30:21.075Z,12.32
2022-10-18T08:32:49.026Z,11.60
2022-10-18T08:35:16.989Z,12.25
2022-10-18T08:37:45.667Z,12.18
2022-10-18T08:40:15.086Z,11.57
2022-10-18T08:43:21.454Z,13.18
2022-10-18T08:45:51.669Z,11.47
2022-10-18T08:48:35.873Z,12.95
2022-10-18T08:51:05.320Z,12.18
2022-10-18T08:53:49.637Z,11.90
2022-10-18T08:56:21.904Z,10.52
2022-10-18T08:58:50.667Z,10.63
2022-10-18T09:02:01.049Z,9.98
2022-10-18T09:04:49.974Z,10.35
2022-10-18T09:07:27.016Z,9.80
2022-10-18T09:10:21.485Z,9.90
2022-10-18T09:13:27.061Z,9.23
2022-10-18T09:16:05.290Z,9.60
2022-10-18T09:19:09.735Z,9.25
2022-10-18T09:21:53.103Z,7.88
2022-10-18T09:24:32.891Z,8.30
2022-10-18T09:27:17.486Z,8.27
2022-10-18T09:29:51.637Z,9.35
2022-10-18T09:32:37.862Z,10.00
2022-10-18T09:35:29.238Z,9.43
2022-10-18T09:38:04.706Z,9.68
2022-10-18T09:40:39.321Z,9.03
2022-10-18T09:43:19.771Z,8.07
2022-10-18T09:45:48.982Z,7.90
2022-10-18T09:48:26.175Z,7.93
2022-10-18T09:51:05.665Z,7.57
2022-10-18T09:53:57.507Z,7.87
2022-10-18T09:56:41.933Z,8.80
2022-10-18T09:59:40.876Z,10.43
2022-10-18T10:02:27.251Z,10.75
2022-10-18T10:04:58.816Z,10.95
2022-10-18T10:07:35.128Z,10.13
2022-10-18T10:10:35.431Z,10.05
2022-10-18T10:13:17.388Z,9.50
2022-10-18T10:15:57.281Z,8.75
2022-10-18T10:18:32.280Z,8.95
2022-10-18T10:21:06.262Z,8.60
2022-10-18T10:23:39.559Z,8.48
2022-10-18T10:26:23.461Z,7.93
2022-10-18T10:28:52.059Z,7.45
2022-10-18T10:31:31.353Z,7.07
2022-10-18T10:34:16.009Z,7.50
2022-10-18T10:36:49.908Z,7.05
2022-10-18T10:39:19.637Z,7.57
2022-10-18T10:41:53.803Z,8.30
2022-10-18T10:44:24.307Z,8.52
2022-10-18T10:46:54.241Z,8.17
2022-10-18T10:49:39.700Z,7.90
2022-10-18T10:52:33.724Z,7.88
2022-10-18T10:55:23.527Z,8.32
2022-10-18T10:57:52.822Z,8.00
2022-10-18T11:00:43.204Z,7.20
2022-10-18T11:03:28.702Z,7.30
2022-10-18T11:06:01.286Z,8.25
2022-10-18T11:08:39.544Z,7.13
2022-10-18T11:11:33.952Z,7.68
2022-10-18T11:17:21.187Z,7.00
2022-10-18T11:20:07.767Z,7.97
2022-10-18T11:22:48.790Z,7.22
2022-10-18T11:25:18.389Z,6.90
2022-10-18T11:27:49.243Z,6.50
2022-10-18T11:30:31.299Z,7.40
2022-10-18T11:33:11.960Z,8.63
2022-10-18T11:35:48.599Z,8.30
2022-10-18T11:38:32.557Z,7.70
2022-10-18T11:41:06.418Z,6.83
2022-10-18T11:44:03.841Z,7.50
2022-10-18T11:46:47.598Z,6.80
2022-10-18T11:49:25.467Z,6.72
2022-10-18T11:52:08.427Z,7.22
2022-10-18T11:54:49.377Z,6.60
2022-10-18T11:57:46.687Z,7.18
2022-10-18T12:00:39.912Z,7.47
2022-10-18T12:03:19.187Z,7.60
2022-10-18T12:05:50.861Z,7.13
2022-10-18T12:08:34.979Z,7.83
2022-10-18T12:11:10.448Z,8.07
2022-10-18T12:13:55.096Z,9.25
2022-10-18T12:16:45.669Z,8.85
2022-10-18T12:19:26.208Z,10.13
2022-10-18T12:22:14.368Z,10.43
2022-10-18T12:24:43.412Z,10.57
2022-10-18T12:27:15.667Z,10.70
2022-10-18T12:30:08.983Z,11.68
2022-10-18T12:32:38.215Z,12.00
2022-10-18T12:35:15.297Z,13.17
2022-10-18T12:37:57.843Z,12.10
2022-10-18T12:44:42.012Z,9.13
2022-10-18T12:48:04.180Z,8.80
2022-10-18T12:54:34.882Z,7.13
2022-10-18T12:57:06.058Z,8.57
2022-10-18T12:59:34.166Z,7.35
2022-10-18T13:02:20.579Z,7.53
2022-10-18T13:05:52.215Z,7.27
2022-10-18T13:08:38.424Z,7.55
2022-10-18T13:11:08.475Z,7.75
2022-10-18T13:13:42.437Z,7.43
2022-10-18T13:16:31.666Z,9.32
2022-10-18T13:19:27.037Z,7.13
2022-10-18T13:22:07.066Z,7.95
2022-10-18T13:24:41.633Z,7.45
2022-10-18T13:27:36.239Z,6.78
2022-10-18T13:30:48.241Z,7.78
2022-10-18T13:33:35.914Z,6.80
2022-10-18T13:36:23.067Z,6.63
2022-10-18T13:39:02.485Z,6.38
2022-10-18T13:41:42.477Z,6.00
2022-10-18T13:44:32.179Z,6.57
2022-10-18T13:46:59.901Z,7.03
2022-10-18T13:49:40.115Z,6.35
2022-10-18T13:52:32.281Z,7.43
2022-10-18T13:55:19.622Z,7.28
2022-10-18T13:58:08.225Z,6.53
2022-10-18T14:00:44.851Z,6.30
2022-10-18T14:06:37.785Z,6.78
2022-10-18T14:09:40.230Z,7.50
2022-10-18T14:12:16.548Z,6.57
2022-10-18T14:14:51.661Z,6.30
2022-10-18T14:17:49.174Z,10.13
2022-10-18T14:20:29.529Z,7.50
2022-10-18T14:23:07.051Z,8.05
2022-10-18T14:26:29.588Z,7.80
2022-10-18T14:29:16.436Z,9.23
2022-10-18T14:31:54.371Z,9.43
2022-10-18T14:34:22.738Z,10.77
2022-10-18T14:36:50.995Z,8.85
2022-10-18T14:39:24.266Z,10.25
2022-10-18T14:41:57.412Z,16.97
2022-10-18T14:44:29.116Z,11.10
2022-10-18T14:47:31.707Z,13.25
2022-10-18T14:50:01.294Z,12.48
2022-10-18T14:52:35.589Z,10.60
2022-10-18T14:55:05.327Z,14.20
2022-10-18T14:57:37.473Z,12.23
2022-10-18T15:00:09.191Z,12.02
2022-10-18T15:02:38.493Z,10.95
2022-10-18T15:05:19.833Z,11.10
2022-10-18T15:07:49.408Z,12.60
2022-10-18T15:10:36.302Z,12.27
2022-10-18T15:13:14.085Z,11.15
2022-10-18T15:15:47.659Z,11.23
2022-10-18T15:18:23.081Z,11.13
2022-10-18T15:21:11.067Z,9.43
2022-10-18T15:23:38.880Z,10.02
2022-10-18T15:26:11.429Z,10.65
2022-10-18T15:29:00.503Z,10.82
2022-10-18T15:31:36.232Z,10.40
2022-10-18T15:34:26.312Z,10.37
2022-10-18T15:36:56.075Z,10.25
2022-10-18T15:39:30.897Z,10.10
2022-10-18T15:42:01.044Z,9.05
2022-10-18T15:44:34.833Z,11.35
2022-10-18T15:47:22.138Z,10.30
2022-10-18T15:49:58.659Z,10.55
2022-10-18T15:52:38.919Z,9.75
2022-10-18T15:55:47.879Z,9.40
2022-10-18T15:58:23.018Z,10.23
2022-10-18T16:00:53.310Z,9.00
2022-10-18T16:03:25.316Z,11.27
2022-10-18T16:06:16.045Z,11.00
2022-10-18T16:08:51.712Z,9.73
2022-10-18T16:11:24.502Z,10.45
2022-10-18T16:13:57.832Z,8.90
2022-10-18T16:16:34.796Z,13.73
2022-10-18T16:19:03.636Z,26.10
2022-10-18T16:21:36.193Z,28.40
2022-10-18T16:24:05.656Z,43.20
2022-10-18T16:26:34.919Z,60.67
2022-10-18T16:29:08.869Z,38.47
2022-10-18T16:31:39.043Z,29.42
2022-10-18T16:34:11.029Z,21.95
2022-10-18T16:36:39.013Z,25.58
2022-10-18T16:39:12.969Z,24.80
2022-10-18T16:41:46.301Z,22.13
2022-10-18T16:44:17.087Z,19.70
2022-10-18T16:46:45.316Z,16.48
2022-10-18T16:49:24.246Z,13.90
2022-10-18T16:51:54.120Z,13.43
2022-10-18T16:54:25.523Z,13.48
2022-10-18T16:57:00.259Z,16.30
2022-10-18T16:59:31.955Z,16.55
2022-10-18T17:02:08.322Z,17.00
2022-10-18T17:04:39.743Z,18.90
2022-10-18T17:07:10.388Z,17.17
2022-10-18T17:09:38.625Z,16.60
2022-10-18T17:12:06.399Z,18.10
2022-10-18T17:14:37.309Z,19.63
2022-10-18T17:17:08.389Z,17.50
2022-10-18T17:19:38.022Z,18.70
2022-10-18T17:22:05.827Z,17.70
2022-10-18T17:24:33.961Z,18.15
2022-10-18T17:27:02.045Z,14.75
2022-10-18T17:29:30.095Z,14.77
2022-10-18T17:31:58.051Z,16.63
2022-10-18T17:34:26.156Z,19.98
2022-10-18T17:36:54.608Z,11.65
2022-10-18T17:39:22.713Z,10.65
2022-10-18T17:41:50.875Z,10.50
2022-10-18T17:44:18.981Z,13.32
2022-10-18T17:46:46.912Z,13.30
2022-10-18T17:49:15.816Z,14.77
2022-10-18T17:51:46.711Z,12.32
2022-10-18T17:54:17.611Z,13.13
2022-10-18T17:56:45.575Z,13.98
2022-10-18T17:59:13.702Z,14.88
2022-10-18T18:01:41.533Z,14.32
2022-10-18T18:04:09.812Z,14.25
2022-10-18T18:06:42.430Z,12.67
2022-10-18T18:09:21.352Z,13.20
2022-10-18T18:11:52.181Z,10.45
2022-10-18T18:14:20.473Z,10.15
2022-10-18T18:16:48.513Z,9.43
2022-10-18T18:19:19.305Z,10.30
2022-10-18T18:21:47.699Z,9.13
2022-10-18T18:24:16.001Z,10.30
2022-10-18T18:26:44.027Z,9.48
2022-10-18T18:29:13.872Z,11.02
2022-10-18T18:31:45.580Z,9.87
2022-10-18T18:34:14.039Z,10.38
2022-10-18T18:36:42.101Z,10.18
2022-10-18T18:39:24.295Z,10.38
2022-10-18T18:41:53.495Z,16.75
2022-10-18T18:44:22.271Z,11.10
2022-10-18T18:46:50.033Z,9.98
2022-10-18T18:49:18.063Z,13.32
2022-10-18T18:51:46.529Z,11.02
2022-10-18T18:54:15.473Z,13.27
2022-10-18T18:56:43.460Z,11.87
2022-10-18T18:59:15.340Z,12.27
2022-10-18T19:01:43.760Z,11.60
2022-10-18T19:04:12.225Z,10.85
2022-10-18T19:06:43.121Z,11.65
2022-10-18T19:09:24.031Z,10.00
2022-10-18T19:11:54.844Z,9.48
2022-10-18T19:14:25.363Z,11.30
2022-10-18T19:16:57.775Z,11.75
2022-10-18T19:19:27.979Z,11.85
2022-10-18T19:21:58.007Z,10.37
2022-10-18T19:24:28.314Z,8.40
2022-10-18T19:26:59.030Z,8.98
2022-10-18T19:29:29.714Z,9.40
2022-10-18T19:32:00.567Z,9.80
2022-10-18T19:34:31.187Z,9.67
2022-10-18T19:36:59.420Z,10.63
2022-10-18T19:39:29.787Z,9.60
2022-10-18T19:42:00.042Z,9.55
2022-10-18T19:44:30.344Z,9.73
2022-10-18T19:46:58.675Z,10.27
2022-10-18T19:49:26.802Z,12.05
2022-10-18T19:51:55.240Z,11.98
2022-10-18T19:54:23.800Z,12.00
2022-10-18T19:56:51.993Z,16.65
2022-10-18T19:59:20.368Z,17.13
2022-10-18T20:01:48.175Z,15.90
2022-10-18T20:04:17.155Z,16.30
2022-10-18T20:06:45.368Z,12.40
2022-10-18T20:09:17.680Z,11.68
2022-10-18T20:11:48.496Z,12.50
2022-10-18T20:14:16.404Z,12.32
2022-10-18T20:16:44.114Z,11.25
2022-10-18T20:19:12.169Z,10.98
2022-10-18T20:21:40.279Z,10.88
2022-10-18T20:24:09.588Z,11.50
2022-10-18T20:26:37.972Z,11.63
2022-10-18T20:29:08.640Z,14.75
2022-10-18T20:31:39.425Z,23.42
2022-10-18T20:34:14.144Z,22.63
2022-10-18T20:36:43.650Z,38.27
2022-10-18T20:39:11.733Z,44.85
2022-10-18T20:41:43.707Z,34.22
2022-10-18T20:44:17.548Z,26.35
2022-10-18T20:46:45.885Z,18.23
2022-10-18T20:49:16.126Z,13.93
2022-10-18T20:51:45.044Z,12.23
2022-10-18T20:54:14.390Z,11.95
2022-10-18T20:56:42.817Z,16.63
2022-10-18T20:59:11.792Z,19.20
2022-10-18T21:01:40.173Z,17.40
2022-10-18T21:04:10.190Z,12.20
2022-10-18T21:06:42.279Z,11.73
2022-10-18T21:09:15.670Z,11.00
2022-10-18T21:11:45.767Z,11.10
2022-10-18T21:14:19.064Z,14.70
2022-10-18T21:16:48.169Z,13.75
2022-10-18T21:19:22.619Z,13.88
2022-10-18T21:21:53.193Z,12.23
2022-10-18T21:24:22.703Z,11.52
2022-10-18T21:26:50.793Z,10.37
2022-10-18T21:29:22.241Z,9.15
2022-10-18T21:31:54.420Z,9.75
2022-10-18T21:34:22.663Z,9.68
2022-10-18T21:36:50.789Z,10.40
2022-10-18T21:39:21.781Z,8.83
2022-10-18T21:41:50.476Z,9.10
2022-10-18T21:44:18.571Z,10.10
2022-10-18T21:46:47.065Z,9.70
2022-10-18T21:49:16.056Z,9.57
2022-10-18T21:51:44.519Z,9.80
2022-10-18T21:54:14.685Z,9.85
2022-10-18T21:56:42.950Z,9.70
2022-10-18T21:59:12.801Z,10.02
2022-10-18T22:01:40.951Z,10.10
2022-10-18T22:04:22.500Z,9.60
2022-10-18T22:06:51.046Z,9.50
2022-10-18T22:09:19.633Z,9.82
2022-10-18T22:11:52.071Z,10.15
2022-10-18T22:14:20.376Z,9.95
2022-10-18T22:16:48.380Z,8.97
2022-10-18T22:19:16.504Z,9.07
2022-10-18T22:21:44.168Z,9.63
2022-10-18T22:24:12.282Z,8.57
2022-10-18T22:26:42.317Z,9.07
2022-10-18T22:29:20.078Z,8.53
2022-10-18T22:31:50.647Z,8.98
2022-10-18T22:34:24.361Z,9.10
2022-10-18T22:36:52.217Z,8.95
2022-10-18T22:39:20.531Z,9.05
2022-10-18T22:41:56.023Z,8.63
2022-10-18T22:44:26.886Z,8.90
2022-10-18T22:46:54.683Z,9.82
2022-10-18T22:49:22.743Z,9.05
2022-10-18T22:51:50.596Z,9.70
2022-10-18T22:54:18.752Z,9.63
2022-10-18T22:56:46.672Z,9.35
2022-10-18T22:59:14.547Z,9.93
2022-10-18T23:01:42.292Z,9.38
2022-10-18T23:04:10.927Z,9.32
2022-10-18T23:06:40.256Z,9.63
2022-10-18T23:09:10.803Z,8.88
2022-10-18T23:11:38.693Z,9.10
2022-10-18T23:14:07.312Z,9.18
2022-10-18T23:16:35.519Z,8.77
2022-10-18T23:19:03.911Z,8.60
2022-10-18T23:21:31.698Z,8.90
2022-10-18T23:23:59.683Z,12.25
2022-10-18T23:26:28.365Z,11.30
2022-10-18T23:28:56.799Z,11.43
2022-10-18T23:31:30.341Z,10.23
2022-10-18T23:34:02.126Z,9.65
2022-10-18T23:36:31.073Z,10.02
2022-10-18T23:38:59.297Z,9.85
2022-10-18T23:41:27.066Z,9.43
2022-10-18T23:43:55.230Z,8.67
2022-10-18T23:46:23.645Z,9.82
2022-10-18T23:48:51.757Z,10.00
2022-10-18T23:51:19.903Z,9.45
2022-10-18T23:53:47.882Z,9.65
2022-10-18T23:56:16.737Z,9.23
2022-10-18T23:58:45.672Z,9.43
